sensor_id;sensor_type;location;lat;lon;timestamp;temperature;humidity
20200;DHT22;36284;37.236;-121.934;2023-09-08T00:01:00;29.00;99.90
20200;DHT22;36284;37.236;-121.934;2023-09-08T00:03:27;28.40;99.90
20200;DHT22;36284;37.236;-121.934;2023-09-08T00:05:54;28.90;99.90
20200;DHT22;36284;37.236;-121.934;2023-09-08T00:08:21;29.00;99.90
20200;DHT22;36284;37.236;-121.934;2023-09-08T00:10:50;28.90;99.90
20200;DHT22;36284;37.236;-121.934;2023-09-08T00:13:17;29.30;99.90
20200;DHT22;36284;37.236;-121.934;2023-09-08T00:15:44;29.20;99.90
20200;DHT22;36284;37.236;-121.934;2023-09-08T00:18:11;29.00;99.90
20200;DHT22;36284;37.236;-121.934;2023-09-08T00:20:38;28.90;99.90
20200;DHT22;36284;37.236;-121.934;2023-09-08T00:23:05;28.80;99.90
20200;DHT22;36284;37.236;-121.934;2023-09-08T00:25:32;28.90;99.90
20200;DHT22;36284;37.236;-121.934;2023-09-08T00:28:01;28.60;99.90
20200;DHT22;36284;37.236;-121.934;2023-09-08T00:30:28;28.60;99.90
20200;DHT22;36284;37.236;-121.934;2023-09-08T00:32:55;28.50;99.90
20200;DHT22;36284;37.236;-121.934;2023-09-08T00:35:22;28.60;99.90
20200;DHT22;36284;37.236;-121.934;2023-09-08T00:37:49;28.10;99.90
20200;DHT22;36284;37.236;-121.934;2023-09-08T00:40:16;27.60;99.90
20200;DHT22;36284;37.236;-121.934;2023-09-08T00:42:43;27.60;99.90
20200;DHT22;36284;37.236;-121.934;2023-09-08T00:45:10;27.70;99.90
20200;DHT22;36284;37.236;-121.934;2023-09-08T00:47:37;27.80;99.90
20200;DHT22;36284;37.236;-121.934;2023-09-08T00:50:05;27.90;99.90
20200;DHT22;36284;37.236;-121.934;2023-09-08T00:52:32;27.80;99.90
20200;DHT22;36284;37.236;-121.934;2023-09-08T00:55:00;27.70;99.90
20200;DHT22;36284;37.236;-121.934;2023-09-08T00:57:27;27.50;99.90
20200;DHT22;36284;37.236;-121.934;2023-09-08T00:59:54;27.20;99.90
20200;DHT22;36284;37.236;-121.934;2023-09-08T01:02:21;27.20;99.90
20200;DHT22;36284;37.236;-121.934;2023-09-08T01:04:49;27.30;99.90
20200;DHT22;36284;37.236;-121.934;2023-09-08T01:07:16;27.00;99.90
20200;DHT22;36284;37.236;-121.934;2023-09-08T01:09:47;27.00;99.90
20200;DHT22;36284;37.236;-121.934;2023-09-08T01:12:14;27.00;99.90
20200;DHT22;36284;37.236;-121.934;2023-09-08T01:14:41;27.00;99.90
20200;DHT22;36284;37.236;-121.934;2023-09-08T01:17:08;26.70;99.90
20200;DHT22;36284;37.236;-121.934;2023-09-08T01:19:35;26.60;99.90
20200;DHT22;36284;37.236;-121.934;2023-09-08T01:27:32;26.60;99.90
20200;DHT22;36284;37.236;-121.934;2023-09-08T01:30:02;26.60;99.90
20200;DHT22;36284;37.236;-121.934;2023-09-08T01:32:30;26.50;99.90
20200;DHT22;36284;37.236;-121.934;2023-09-08T01:34:59;26.50;99.90
20200;DHT22;36284;37.236;-121.934;2023-09-08T01:37:26;26.30;99.90
20200;DHT22;36284;37.236;-121.934;2023-09-08T01:39:53;26.10;99.90
20200;DHT22;36284;37.236;-121.934;2023-09-08T01:42:20;25.90;99.90
20200;DHT22;36284;37.236;-121.934;2023-09-08T01:44:47;25.90;99.90
20200;DHT22;36284;37.236;-121.934;2023-09-08T01:47:15;25.60;99.90
20200;DHT22;36284;37.236;-121.934;2023-09-08T01:49:42;25.40;99.90
20200;DHT22;36284;37.236;-121.934;2023-09-08T01:52:09;25.40;99.90
20200;DHT22;36284;37.236;-121.934;2023-09-08T01:54:36;25.40;99.90
20200;DHT22;36284;37.236;-121.934;2023-09-08T01:57:03;25.30;99.90
20200;DHT22;36284;37.236;-121.934;2023-09-08T01:59:30;25.30;99.90
20200;DHT22;36284;37.236;-121.934;2023-09-08T02:01:57;25.10;99.90
20200;DHT22;36284;37.236;-121.934;2023-09-08T02:04:24;25.00;99.90
20200;DHT22;36284;37.236;-121.934;2023-09-08T02:06:51;24.90;99.90
20200;DHT22;36284;37.236;-121.934;2023-09-08T02:09:18;24.90;99.90
20200;DHT22;36284;37.236;-121.934;2023-09-08T02:11:45;24.80;99.90
20200;DHT22;36284;37.236;-121.934;2023-09-08T02:14:12;24.60;99.90
20200;DHT22;36284;37.236;-121.934;2023-09-08T02:16:38;24.50;99.90
20200;DHT22;36284;37.236;-121.934;2023-09-08T02:19:06;24.20;99.90
20200;DHT22;36284;37.236;-121.934;2023-09-08T02:21:33;24.20;99.90
20200;DHT22;36284;37.236;-121.934;2023-09-08T02:24:00;24.10;99.90
20200;DHT22;36284;37.236;-121.934;2023-09-08T02:26:27;24.10;99.90
20200;DHT22;36284;37.236;-121.934;2023-09-08T02:28:54;24.00;99.90
20200;DHT22;36284;37.236;-121.934;2023-09-08T02:31:20;23.90;99.90
20200;DHT22;36284;37.236;-121.934;2023-09-08T02:33:47;23.80;99.90
20200;DHT22;36284;37.236;-121.934;2023-09-08T02:36:15;23.60;99.90
20200;DHT22;36284;37.236;-121.934;2023-09-08T02:38:42;23.40;99.90
20200;DHT22;36284;37.236;-121.934;2023-09-08T02:41:09;23.10;99.90
20200;DHT22;36284;37.236;-121.934;2023-09-08T02:43:36;23.10;99.90
20200;DHT22;36284;37.236;-121.934;2023-09-08T02:46:02;23.10;99.90
20200;DHT22;36284;37.236;-121.934;2023-09-08T02:48:29;23.10;99.90
20200;DHT22;36284;37.236;-121.934;2023-09-08T02:50:56;23.10;99.90
20200;DHT22;36284;37.236;-121.934;2023-09-08T02:53:23;23.00;99.90
20200;DHT22;36284;37.236;-121.934;2023-09-08T02:55:55;23.00;99.90
20200;DHT22;36284;37.236;-121.934;2023-09-08T02:58:22;22.60;99.90
20200;DHT22;36284;37.236;-121.934;2023-09-08T03:00:49;22.60;99.90
20200;DHT22;36284;37.236;-121.934;2023-09-08T03:03:19;22.40;99.90
20200;DHT22;36284;37.236;-121.934;2023-09-08T03:05:46;22.10;99.90
20200;DHT22;36284;37.236;-121.934;2023-09-08T03:08:13;22.30;99.90
20200;DHT22;36284;37.236;-121.934;2023-09-08T03:10:40;22.20;99.90
20200;DHT22;36284;37.236;-121.934;2023-09-08T03:13:07;22.20;99.90
20200;DHT22;36284;37.236;-121.934;2023-09-08T03:15:35;22.20;99.90
20200;DHT22;36284;37.236;-121.934;2023-09-08T03:18:02;22.00;99.90
20200;DHT22;36284;37.236;-121.934;2023-09-08T03:20:29;21.90;99.90
20200;DHT22;36284;37.236;-121.934;2023-09-08T03:22:56;21.80;99.90
20200;DHT22;36284;37.236;-121.934;2023-09-08T03:25:23;21.60;99.90
20200;DHT22;36284;37.236;-121.934;2023-09-08T03:27:49;21.50;99.90
20200;DHT22;36284;37.236;-121.934;2023-09-08T03:30:16;21.40;99.90
20200;DHT22;36284;37.236;-121.934;2023-09-08T03:32:44;21.30;99.90
20200;DHT22;36284;37.236;-121.934;2023-09-08T03:35:11;21.30;99.90
20200;DHT22;36284;37.236;-121.934;2023-09-08T03:37:38;21.20;99.90
20200;DHT22;36284;37.236;-121.934;2023-09-08T03:40:05;21.10;99.90
20200;DHT22;36284;37.236;-121.934;2023-09-08T03:42:33;21.10;99.90
20200;DHT22;36284;37.236;-121.934;2023-09-08T03:45:01;21.10;99.90
20200;DHT22;36284;37.236;-121.934;2023-09-08T03:47:28;21.00;99.90
20200;DHT22;36284;37.236;-121.934;2023-09-08T03:49:55;21.00;99.90
20200;DHT22;36284;37.236;-121.934;2023-09-08T03:52:22;20.90;99.90
20200;DHT22;36284;37.236;-121.934;2023-09-08T03:54:49;20.80;99.90
20200;DHT22;36284;37.236;-121.934;2023-09-08T03:57:16;20.60;99.90
20200;DHT22;36284;37.236;-121.934;2023-09-08T03:59:43;20.50;99.90
20200;DHT22;36284;37.236;-121.934;2023-09-08T04:02:10;20.50;99.90
20200;DHT22;36284;37.236;-121.934;2023-09-08T04:04:37;20.30;99.90
20200;DHT22;36284;37.236;-121.934;2023-09-08T04:07:04;20.00;99.90
20200;DHT22;36284;37.236;-121.934;2023-09-08T04:09:31;19.70;99.90
20200;DHT22;36284;37.236;-121.934;2023-09-08T04:11:58;19.60;99.90
20200;DHT22;36284;37.236;-121.934;2023-09-08T04:14:25;19.80;99.90
20200;DHT22;36284;37.236;-121.934;2023-09-08T04:16:54;19.70;99.90
20200;DHT22;36284;37.236;-121.934;2023-09-08T04:19:20;19.70;99.90
20200;DHT22;36284;37.236;-121.934;2023-09-08T04:21:47;19.60;99.90
20200;DHT22;36284;37.236;-121.934;2023-09-08T04:24:14;19.50;99.90
20200;DHT22;36284;37.236;-121.934;2023-09-08T04:26:41;19.30;99.90
20200;DHT22;36284;37.236;-121.934;2023-09-08T04:29:08;19.00;99.90
20200;DHT22;36284;37.236;-121.934;2023-09-08T04:31:35;18.90;99.90
20200;DHT22;36284;37.236;-121.934;2023-09-08T04:34:02;18.80;99.90
20200;DHT22;36284;37.236;-121.934;2023-09-08T04:36:29;18.80;99.90
20200;DHT22;36284;37.236;-121.934;2023-09-08T04:38:57;18.90;99.90
20200;DHT22;36284;37.236;-121.934;2023-09-08T04:41:23;18.80;99.90
20200;DHT22;36284;37.236;-121.934;2023-09-08T04:43:50;18.70;99.90
20200;DHT22;36284;37.236;-121.934;2023-09-08T04:46:17;18.60;99.90
20200;DHT22;36284;37.236;-121.934;2023-09-08T04:48:44;18.50;99.90
20200;DHT22;36284;37.236;-121.934;2023-09-08T04:51:11;18.50;99.90
20200;DHT22;36284;37.236;-121.934;2023-09-08T04:53:38;18.50;99.90
20200;DHT22;36284;37.236;-121.934;2023-09-08T04:56:05;18.50;99.90
20200;DHT22;36284;37.236;-121.934;2023-09-08T04:58:32;18.40;99.90
20200;DHT22;36284;37.236;-121.934;2023-09-08T05:00:59;18.40;99.90
20200;DHT22;36284;37.236;-121.934;2023-09-08T05:03:26;18.30;99.90
20200;DHT22;36284;37.236;-121.934;2023-09-08T05:05:53;18.40;99.90
20200;DHT22;36284;37.236;-121.934;2023-09-08T05:08:20;18.30;99.90
20200;DHT22;36284;37.236;-121.934;2023-09-08T05:10:47;18.20;99.90
20200;DHT22;36284;37.236;-121.934;2023-09-08T05:13:16;18.30;99.90
20200;DHT22;36284;37.236;-121.934;2023-09-08T05:15:43;18.10;99.90
20200;DHT22;36284;37.236;-121.934;2023-09-08T05:18:14;18.10;99.90
20200;DHT22;36284;37.236;-121.934;2023-09-08T05:20:42;18.20;99.90
20200;DHT22;36284;37.236;-121.934;2023-09-08T05:23:09;18.00;99.90
20200;DHT22;36284;37.236;-121.934;2023-09-08T05:25:36;17.90;99.90
20200;DHT22;36284;37.236;-121.934;2023-09-08T05:28:03;17.90;99.90
20200;DHT22;36284;37.236;-121.934;2023-09-08T05:30:30;17.90;99.90
20200;DHT22;36284;37.236;-121.934;2023-09-08T05:32:57;17.80;99.90
20200;DHT22;36284;37.236;-121.934;2023-09-08T05:35:24;17.80;99.90
20200;DHT22;36284;37.236;-121.934;2023-09-08T05:37:51;17.70;99.90
20200;DHT22;36284;37.236;-121.934;2023-09-08T05:40:18;17.60;99.90
20200;DHT22;36284;37.236;-121.934;2023-09-08T05:42:46;17.60;99.90
20200;DHT22;36284;37.236;-121.934;2023-09-08T05:45:13;17.50;99.90
20200;DHT22;36284;37.236;-121.934;2023-09-08T05:47:40;17.60;99.90
20200;DHT22;36284;37.236;-121.934;2023-09-08T05:50:07;17.50;99.90
20200;DHT22;36284;37.236;-121.934;2023-09-08T05:52:34;17.50;99.90
20200;DHT22;36284;37.236;-121.934;2023-09-08T05:55:01;17.50;99.90
20200;DHT22;36284;37.236;-121.934;2023-09-08T05:57:28;17.40;99.90
20200;DHT22;36284;37.236;-121.934;2023-09-08T05:59:55;17.40;99.90
20200;DHT22;36284;37.236;-121.934;2023-09-08T06:02:22;17.30;99.90
20200;DHT22;36284;37.236;-121.934;2023-09-08T06:04:49;17.20;99.90
20200;DHT22;36284;37.236;-121.934;2023-09-08T06:07:16;17.20;99.90
20200;DHT22;36284;37.236;-121.934;2023-09-08T06:09:43;17.20;99.90
20200;DHT22;36284;37.236;-121.934;2023-09-08T06:12:10;17.20;99.90
20200;DHT22;36284;37.236;-121.934;2023-09-08T06:14:37;17.10;99.90
20200;DHT22;36284;37.236;-121.934;2023-09-08T06:17:04;17.20;99.90
20200;DHT22;36284;37.236;-121.934;2023-09-08T06:19:30;17.20;99.90
20200;DHT22;36284;37.236;-121.934;2023-09-08T06:21:57;17.20;99.90
20200;DHT22;36284;37.236;-121.934;2023-09-08T06:24:24;17.00;99.90
20200;DHT22;36284;37.236;-121.934;2023-09-08T06:26:51;16.90;99.90
20200;DHT22;36284;37.236;-121.934;2023-09-08T06:29:18;17.00;99.90
20200;DHT22;36284;37.236;-121.934;2023-09-08T06:31:45;16.90;99.90
20200;DHT22;36284;37.236;-121.934;2023-09-08T06:34:12;16.90;99.90
20200;DHT22;36284;37.236;-121.934;2023-09-08T06:36:39;16.90;99.90
20200;DHT22;36284;37.236;-121.934;2023-09-08T06:39:06;16.90;99.90
20200;DHT22;36284;37.236;-121.934;2023-09-08T06:41:33;16.90;99.90
20200;DHT22;36284;37.236;-121.934;2023-09-08T06:44:00;16.80;99.90
20200;DHT22;36284;37.236;-121.934;2023-09-08T06:46:27;16.70;99.90
20200;DHT22;36284;37.236;-121.934;2023-09-08T06:48:54;16.80;99.90
20200;DHT22;36284;37.236;-121.934;2023-09-08T06:51:21;16.70;99.90
20200;DHT22;36284;37.236;-121.934;2023-09-08T06:53:55;16.70;99.90
20200;DHT22;36284;37.236;-121.934;2023-09-08T06:56:26;16.70;99.90
20200;DHT22;36284;37.236;-121.934;2023-09-08T06:58:53;16.30;99.90
20200;DHT22;36284;37.236;-121.934;2023-09-08T07:01:20;16.60;99.90
20200;DHT22;36284;37.236;-121.934;2023-09-08T07:03:47;16.60;99.90
20200;DHT22;36284;37.236;-121.934;2023-09-08T07:06:14;16.50;99.90
20200;DHT22;36284;37.236;-121.934;2023-09-08T07:08:41;16.50;99.90
20200;DHT22;36284;37.236;-121.934;2023-09-08T07:11:08;16.50;99.90
20200;DHT22;36284;37.236;-121.934;2023-09-08T07:13:35;16.50;99.90
20200;DHT22;36284;37.236;-121.934;2023-09-08T07:16:02;16.50;99.90
20200;DHT22;36284;37.236;-121.934;2023-09-08T07:18:29;16.40;99.90
20200;DHT22;36284;37.236;-121.934;2023-09-08T07:20:59;16.30;99.90
20200;DHT22;36284;37.236;-121.934;2023-09-08T07:23:25;16.30;99.90
20200;DHT22;36284;37.236;-121.934;2023-09-08T07:25:52;16.40;99.90
20200;DHT22;36284;37.236;-121.934;2023-09-08T07:28:19;16.50;99.90
20200;DHT22;36284;37.236;-121.934;2023-09-08T07:30:46;16.50;99.90
20200;DHT22;36284;37.236;-121.934;2023-09-08T07:33:13;16.40;99.90
20200;DHT22;36284;37.236;-121.934;2023-09-08T07:35:40;16.20;99.90
20200;DHT22;36284;37.236;-121.934;2023-09-08T07:38:07;16.10;99.90
20200;DHT22;36284;37.236;-121.934;2023-09-08T07:40:35;16.10;99.90
20200;DHT22;36284;37.236;-121.934;2023-09-08T07:43:02;16.00;99.90
20200;DHT22;36284;37.236;-121.934;2023-09-08T07:45:29;16.00;99.90
20200;DHT22;36284;37.236;-121.934;2023-09-08T07:47:56;15.80;99.90
20200;DHT22;36284;37.236;-121.934;2023-09-08T07:50:27;15.70;99.90
20200;DHT22;36284;37.236;-121.934;2023-09-08T07:52:56;15.70;99.90
20200;DHT22;36284;37.236;-121.934;2023-09-08T07:55:23;15.70;99.90
20200;DHT22;36284;37.236;-121.934;2023-09-08T07:57:54;15.80;99.90
20200;DHT22;36284;37.236;-121.934;2023-09-08T08:00:21;15.70;99.90
20200;DHT22;36284;37.236;-121.934;2023-09-08T08:02:50;15.70;99.90
20200;DHT22;36284;37.236;-121.934;2023-09-08T08:05:18;15.60;99.90
20200;DHT22;36284;37.236;-121.934;2023-09-08T08:07:45;15.70;99.90
20200;DHT22;36284;37.236;-121.934;2023-09-08T08:10:12;15.70;99.90
20200;DHT22;36284;37.236;-121.934;2023-09-08T08:12:40;15.70;99.90
20200;DHT22;36284;37.236;-121.934;2023-09-08T08:15:08;15.60;99.90
20200;DHT22;36284;37.236;-121.934;2023-09-08T08:17:40;15.60;99.90
20200;DHT22;36284;37.236;-121.934;2023-09-08T08:20:11;15.50;99.90
20200;DHT22;36284;37.236;-121.934;2023-09-08T08:22:44;15.50;99.90
20200;DHT22;36284;37.236;-121.934;2023-09-08T08:25:12;15.50;99.90
20200;DHT22;36284;37.236;-121.934;2023-09-08T08:27:40;15.40;99.90
20200;DHT22;36284;37.236;-121.934;2023-09-08T08:30:07;15.40;99.90
20200;DHT22;36284;37.236;-121.934;2023-09-08T08:32:34;15.40;99.90
20200;DHT22;36284;37.236;-121.934;2023-09-08T08:35:01;15.50;99.90
20200;DHT22;36284;37.236;-121.934;2023-09-08T08:37:31;15.40;99.90
20200;DHT22;36284;37.236;-121.934;2023-09-08T08:39:57;15.30;99.90
20200;DHT22;36284;37.236;-121.934;2023-09-08T08:42:31;15.20;99.90
20200;DHT22;36284;37.236;-121.934;2023-09-08T08:44:59;15.20;99.90
20200;DHT22;36284;37.236;-121.934;2023-09-08T08:47:28;15.20;99.90
20200;DHT22;36284;37.236;-121.934;2023-09-08T08:49:58;15.30;99.90
20200;DHT22;36284;37.236;-121.934;2023-09-08T08:52:29;15.40;99.90
20200;DHT22;36284;37.236;-121.934;2023-09-08T08:54:57;15.40;99.90
20200;DHT22;36284;37.236;-121.934;2023-09-08T08:57:24;15.40;99.90
20200;DHT22;36284;37.236;-121.934;2023-09-08T08:59:54;15.20;99.90
20200;DHT22;36284;37.236;-121.934;2023-09-08T09:02:21;15.20;99.90
20200;DHT22;36284;37.236;-121.934;2023-09-08T09:04:49;15.20;99.90
20200;DHT22;36284;37.236;-121.934;2023-09-08T09:07:18;15.20;99.90
20200;DHT22;36284;37.236;-121.934;2023-09-08T09:09:47;15.10;99.90
20200;DHT22;36284;37.236;-121.934;2023-09-08T09:12:14;15.00;99.90
20200;DHT22;36284;37.236;-121.934;2023-09-08T09:14:46;15.00;99.90
20200;DHT22;36284;37.236;-121.934;2023-09-08T09:17:15;15.00;99.90
20200;DHT22;36284;37.236;-121.934;2023-09-08T09:19:42;14.90;99.90
20200;DHT22;36284;37.236;-121.934;2023-09-08T09:22:09;14.90;99.90
20200;DHT22;36284;37.236;-121.934;2023-09-08T09:24:39;15.00;99.90
20200;DHT22;36284;37.236;-121.934;2023-09-08T09:27:13;14.90;99.90
20200;DHT22;36284;37.236;-121.934;2023-09-08T09:29:50;14.80;99.90
20200;DHT22;36284;37.236;-121.934;2023-09-08T09:32:23;14.90;99.90
20200;DHT22;36284;37.236;-121.934;2023-09-08T09:34:52;14.80;99.90
20200;DHT22;36284;37.236;-121.934;2023-09-08T09:37:20;14.80;99.90
20200;DHT22;36284;37.236;-121.934;2023-09-08T09:39:54;14.80;99.90
20200;DHT22;36284;37.236;-121.934;2023-09-08T09:42:21;14.70;99.90
20200;DHT22;36284;37.236;-121.934;2023-09-08T09:44:49;14.90;99.90
20200;DHT22;36284;37.236;-121.934;2023-09-08T09:47:18;14.70;99.90
20200;DHT22;36284;37.236;-121.934;2023-09-08T09:49:46;14.80;99.90
20200;DHT22;36284;37.236;-121.934;2023-09-08T09:52:15;14.80;99.90
20200;DHT22;36284;37.236;-121.934;2023-09-08T09:54:47;14.80;99.90
20200;DHT22;36284;37.236;-121.934;2023-09-08T09:57:17;14.90;99.90
20200;DHT22;36284;37.236;-121.934;2023-09-08T09:59:46;14.80;99.90
20200;DHT22;36284;37.236;-121.934;2023-09-08T10:02:18;14.90;99.90
20200;DHT22;36284;37.236;-121.934;2023-09-08T10:04:49;14.80;99.90
20200;DHT22;36284;37.236;-121.934;2023-09-08T10:07:17;14.80;99.90
20200;DHT22;36284;37.236;-121.934;2023-09-08T10:09:44;14.70;99.90
20200;DHT22;36284;37.236;-121.934;2023-09-08T10:12:14;14.60;99.90
20200;DHT22;36284;37.236;-121.934;2023-09-08T10:14:45;14.50;99.90
20200;DHT22;36284;37.236;-121.934;2023-09-08T10:17:17;14.40;99.90
20200;DHT22;36284;37.236;-121.934;2023-09-08T10:19:47;14.40;99.90
20200;DHT22;36284;37.236;-121.934;2023-09-08T10:22:20;14.50;99.90
20200;DHT22;36284;37.236;-121.934;2023-09-08T10:24:54;14.50;99.90
20200;DHT22;36284;37.236;-121.934;2023-09-08T10:27:23;14.40;99.90
20200;DHT22;36284;37.236;-121.934;2023-09-08T10:29:51;14.30;99.90
20200;DHT22;36284;37.236;-121.934;2023-09-08T10:32:20;14.30;99.90
20200;DHT22;36284;37.236;-121.934;2023-09-08T10:34:49;14.20;99.90
20200;DHT22;36284;37.236;-121.934;2023-09-08T10:37:24;14.20;99.90
20200;DHT22;36284;37.236;-121.934;2023-09-08T10:40:25;14.20;99.90
20200;DHT22;36284;37.236;-121.934;2023-09-08T10:43:09;14.20;99.90
20200;DHT22;36284;37.236;-121.934;2023-09-08T10:45:36;14.10;99.90
20200;DHT22;36284;37.236;-121.934;2023-09-08T10:48:03;14.10;99.90
20200;DHT22;36284;37.236;-121.934;2023-09-08T10:50:35;14.10;99.90
20200;DHT22;36284;37.236;-121.934;2023-09-08T10:53:18;14.10;99.90
20200;DHT22;36284;37.236;-121.934;2023-09-08T10:55:49;14.10;99.90
20200;DHT22;36284;37.236;-121.934;2023-09-08T10:58:20;14.10;99.90
20200;DHT22;36284;37.236;-121.934;2023-09-08T11:00:51;14.00;99.90
20200;DHT22;36284;37.236;-121.934;2023-09-08T11:03:28;14.00;99.90
20200;DHT22;36284;37.236;-121.934;2023-09-08T11:06:09;14.00;99.90
20200;DHT22;36284;37.236;-121.934;2023-09-08T11:08:46;13.90;99.90
20200;DHT22;36284;37.236;-121.934;2023-09-08T11:11:14;14.00;99.90
20200;DHT22;36284;37.236;-121.934;2023-09-08T11:13:42;14.00;99.90
20200;DHT22;36284;37.236;-121.934;2023-09-08T11:16:13;13.90;99.90
20200;DHT22;36284;37.236;-121.934;2023-09-08T11:18:40;13.90;99.90
20200;DHT22;36284;37.236;-121.934;2023-09-08T11:21:09;13.90;99.90
20200;DHT22;36284;37.236;-121.934;2023-09-08T11:23:37;13.90;99.90
20200;DHT22;36284;37.236;-121.934;2023-09-08T11:26:05;14.00;99.90
20200;DHT22;36284;37.236;-121.934;2023-09-08T11:28:35;14.00;99.90
20200;DHT22;36284;37.236;-121.934;2023-09-08T11:31:02;13.90;99.90
20200;DHT22;36284;37.236;-121.934;2023-09-08T11:33:34;13.90;99.90
20200;DHT22;36284;37.236;-121.934;2023-09-08T11:36:12;14.00;99.90
20200;DHT22;36284;37.236;-121.934;2023-09-08T11:38:43;13.90;99.90
20200;DHT22;36284;37.236;-121.934;2023-09-08T11:41:11;13.90;99.90
20200;DHT22;36284;37.236;-121.934;2023-09-08T11:43:38;13.90;99.90
20200;DHT22;36284;37.236;-121.934;2023-09-08T11:46:06;13.90;99.90
20200;DHT22;36284;37.236;-121.934;2023-09-08T11:48:33;13.90;99.90
20200;DHT22;36284;37.236;-121.934;2023-09-08T11:51:00;13.80;99.90
20200;DHT22;36284;37.236;-121.934;2023-09-08T11:53:27;13.80;99.90
20200;DHT22;36284;37.236;-121.934;2023-09-08T11:55:54;13.90;99.90
20200;DHT22;36284;37.236;-121.934;2023-09-08T11:58:22;13.80;99.90
20200;DHT22;36284;37.236;-121.934;2023-09-08T12:00:50;13.70;99.90
20200;DHT22;36284;37.236;-121.934;2023-09-08T12:03:17;13.60;99.90
20200;DHT22;36284;37.236;-121.934;2023-09-08T12:05:50;13.60;99.90
20200;DHT22;36284;37.236;-121.934;2023-09-08T12:08:18;13.50;99.90
20200;DHT22;36284;37.236;-121.934;2023-09-08T12:10:45;13.60;99.90
20200;DHT22;36284;37.236;-121.934;2023-09-08T12:13:11;13.50;99.90
20200;DHT22;36284;37.236;-121.934;2023-09-08T12:15:41;13.50;99.90
20200;DHT22;36284;37.236;-121.934;2023-09-08T12:18:11;13.50;99.90
20200;DHT22;36284;37.236;-121.934;2023-09-08T12:20:41;13.40;99.90
20200;DHT22;36284;37.236;-121.934;2023-09-08T12:23:19;13.50;99.90
20200;DHT22;36284;37.236;-121.934;2023-09-08T12:25:48;13.50;99.90
20200;DHT22;36284;37.236;-121.934;2023-09-08T12:28:17;13.50;99.90
20200;DHT22;36284;37.236;-121.934;2023-09-08T12:30:45;13.40;99.90
20200;DHT22;36284;37.236;-121.934;2023-09-08T12:33:14;13.40;99.90
20200;DHT22;36284;37.236;-121.934;2023-09-08T12:35:47;13.50;99.90
20200;DHT22;36284;37.236;-121.934;2023-09-08T12:38:19;13.60;99.90
20200;DHT22;36284;37.236;-121.934;2023-09-08T12:40:46;13.50;99.90
20200;DHT22;36284;37.236;-121.934;2023-09-08T12:43:13;13.50;99.90
20200;DHT22;36284;37.236;-121.934;2023-09-08T12:45:40;13.40;99.90
20200;DHT22;36284;37.236;-121.934;2023-09-08T12:48:07;13.40;99.90
20200;DHT22;36284;37.236;-121.934;2023-09-08T12:50:34;13.30;99.90
20200;DHT22;36284;37.236;-121.934;2023-09-08T12:53:01;13.30;99.90
20200;DHT22;36284;37.236;-121.934;2023-09-08T12:55:28;13.20;99.90
20200;DHT22;36284;37.236;-121.934;2023-09-08T12:57:55;13.20;99.90
20200;DHT22;36284;37.236;-121.934;2023-09-08T13:00:23;13.30;99.90
20200;DHT22;36284;37.236;-121.934;2023-09-08T13:02:51;13.30;99.90
20200;DHT22;36284;37.236;-121.934;2023-09-08T13:05:18;13.30;99.90
20200;DHT22;36284;37.236;-121.934;2023-09-08T13:07:45;13.30;99.90
20200;DHT22;36284;37.236;-121.934;2023-09-08T13:10:12;13.30;99.90
20200;DHT22;36284;37.236;-121.934;2023-09-08T13:12:40;13.30;99.90
20200;DHT22;36284;37.236;-121.934;2023-09-08T13:15:07;13.30;99.90
20200;DHT22;36284;37.236;-121.934;2023-09-08T13:17:35;13.30;99.90
20200;DHT22;36284;37.236;-121.934;2023-09-08T13:20:02;13.30;99.90
20200;DHT22;36284;37.236;-121.934;2023-09-08T13:22:29;13.20;99.90
20200;DHT22;36284;37.236;-121.934;2023-09-08T13:24:56;13.20;99.90
20200;DHT22;36284;37.236;-121.934;2023-09-08T13:27:23;13.10;99.90
20200;DHT22;36284;37.236;-121.934;2023-09-08T13:29:52;13.10;99.90
20200;DHT22;36284;37.236;-121.934;2023-09-08T13:32:19;13.10;99.90
20200;DHT22;36284;37.236;-121.934;2023-09-08T13:34:47;13.10;99.90
20200;DHT22;36284;37.236;-121.934;2023-09-08T13:37:14;13.10;99.90
20200;DHT22;36284;37.236;-121.934;2023-09-08T13:39:41;12.90;99.90
20200;DHT22;36284;37.236;-121.934;2023-09-08T13:42:08;13.00;99.90
20200;DHT22;36284;37.236;-121.934;2023-09-08T13:44:35;13.10;99.90
20200;DHT22;36284;37.236;-121.934;2023-09-08T13:47:02;13.00;99.90
20200;DHT22;36284;37.236;-121.934;2023-09-08T13:49:30;13.00;99.90
20200;DHT22;36284;37.236;-121.934;2023-09-08T13:51:57;13.10;99.90
20200;DHT22;36284;37.236;-121.934;2023-09-08T13:54:24;13.20;99.90
20200;DHT22;36284;37.236;-121.934;2023-09-08T13:56:58;13.20;99.90
20200;DHT22;36284;37.236;-121.934;2023-09-08T13:59:29;13.20;99.90
20200;DHT22;36284;37.236;-121.934;2023-09-08T14:01:57;13.30;99.90
20200;DHT22;36284;37.236;-121.934;2023-09-08T14:04:25;13.40;99.90
20200;DHT22;36284;37.236;-121.934;2023-09-08T14:06:52;13.50;99.90
20200;DHT22;36284;37.236;-121.934;2023-09-08T14:09:20;13.50;99.90
20200;DHT22;36284;37.236;-121.934;2023-09-08T14:11:46;13.60;99.90
20200;DHT22;36284;37.236;-121.934;2023-09-08T14:14:13;13.60;99.90
20200;DHT22;36284;37.236;-121.934;2023-09-08T14:16:40;13.50;99.90
20200;DHT22;36284;37.236;-121.934;2023-09-08T14:19:07;13.60;99.90
20200;DHT22;36284;37.236;-121.934;2023-09-08T14:21:34;13.70;99.90
20200;DHT22;36284;37.236;-121.934;2023-09-08T14:24:03;13.80;99.90
20200;DHT22;36284;37.236;-121.934;2023-09-08T14:26:30;13.90;99.90
20200;DHT22;36284;37.236;-121.934;2023-09-08T14:28:57;14.00;99.90
20200;DHT22;36284;37.236;-121.934;2023-09-08T14:31:24;14.00;99.90
20200;DHT22;36284;37.236;-121.934;2023-09-08T14:33:51;14.00;99.90
20200;DHT22;36284;37.236;-121.934;2023-09-08T14:36:19;14.10;99.90
20200;DHT22;36284;37.236;-121.934;2023-09-08T14:38:46;14.20;99.90
20200;DHT22;36284;37.236;-121.934;2023-09-08T14:41:13;14.30;99.90
20200;DHT22;36284;37.236;-121.934;2023-09-08T14:43:40;14.40;99.90
20200;DHT22;36284;37.236;-121.934;2023-09-08T14:46:07;14.60;99.90
20200;DHT22;36284;37.236;-121.934;2023-09-08T14:48:34;14.80;99.90
20200;DHT22;36284;37.236;-121.934;2023-09-08T14:51:02;15.10;99.90
20200;DHT22;36284;37.236;-121.934;2023-09-08T14:53:30;15.30;99.90
20200;DHT22;36284;37.236;-121.934;2023-09-08T14:56:00;15.60;99.90
20200;DHT22;36284;37.236;-121.934;2023-09-08T14:58:27;16.10;99.90